Аэропорт: Хомутово. Южно-Сахалинск

ICAO: UHSS

METAR:
2024-04-22 23:00:00
UHSS 222300Z 34001MPS 9999 BKN014 04/00 Q1024 R01/70D NOSIG RMK MT OBSC QFE767/1022
TAF:
2024-04-22 23:00:00
TAF UHSS 222300Z 2300/2406 36003MPS 9999 SCT040CB 
  BECMG 2301/2303 15003MPS